Terminal Aerodrome Forecast
Issued by NWS Atlanta, GA

Current Version | Previous Version | Text Only | Print | Product List | Glossary On
Versions: 1 2 3 4 5 6 7 8 9 10 11 12 13 14 15 16 17 18 19 20 21 22 23 24 25 26 27 28 29 30 31 32 33 34 35 36 37 38
000
FTUS42 KFFC 301500 AAA
TAFAHN
TAF AMD
KAHN 301552Z 3016/3112 06004KT P6SM FEW030
     FM301800 03005KT P6SM SCT030 SCT250
     FM310300 03005KT P6SM FEW250
     FM310900 00000KT P6SM BKN150=

USA.gov is the U.S. government's official web portal to all federal, state and local government web resources and services.